Time;durP1;ratioP1;P1;durP2;ratioP2;P2;SDS_P1;SDS_P2;PMS_P1;PMS_P2;Temp;Humidity;BMP_temperature;BMP_pressure;BME280_temperature;BME280_humidity;BME280_pressure;Samples;Min_cycle;Max_cycle;Signal;HPM_P1;HPM_P2
2022/05/24 00:01:39;;;;;;;13.52;7.78;;;14.30;99.90;;;;;;5039788;28;20022;-70
2022/05/24 00:04:05;;;;;;;13.00;7.28;;;14.30;99.90;;;;;;5039773;28;20021;-70
2022/05/24 00:06:31;;;;;;;11.38;6.85;;;14.30;99.90;;;;;;5040000;28;20461;-70
2022/05/24 00:08:58;;;;;;;10.82;6.90;;;14.30;99.90;;;;;;5040180;28;20083;-70
2022/05/24 00:11:23;;;;;;;12.77;6.22;;;14.30;99.90;;;;;;5039716;28;20052;-70
2022/05/24 00:13:50;;;;;;;20.42;7.47;;;14.30;99.90;;;;;;5039920;28;20457;-70
2022/05/24 00:16:16;;;;;;;22.15;8.30;;;14.30;99.90;;;;;;5039645;28;20075;-70
2022/05/24 00:18:42;;;;;;;18.25;7.82;;;14.20;99.90;;;;;;5021701;28;20025;-70
2022/05/24 00:21:07;;;;;;;11.70;7.20;;;14.20;99.90;;;;;;5039787;28;20436;-70
2022/05/24 00:23:33;;;;;;;14.65;7.35;;;14.20;99.90;;;;;;5039472;28;20032;-69
2022/05/24 00:26:03;;;;;;;14.18;7.93;;;14.20;99.90;;;;;;5039557;28;20017;-69
2022/05/24 00:28:31;;;;;;;9.48;7.20;;;14.20;99.90;;;;;;5039461;28;20056;-69
2022/05/24 00:30:57;;;;;;;13.10;7.18;;;14.20;99.90;;;;;;5039504;28;20025;-69
2022/05/24 00:33:22;;;;;;;11.63;7.50;;;14.20;99.90;;;;;;5039859;28;20041;-69
2022/05/24 00:35:49;;;;;;;14.35;7.18;;;14.20;99.90;;;;;;5039794;28;20500;-69
2022/05/24 00:38:27;;;;;;;13.43;7.63;;;14.20;99.90;;;;;;5039353;28;20025;-69
2022/05/24 00:41:17;;;;;;;17.55;7.53;;;14.20;99.90;;;;;;5039772;28;20021;-69
2022/05/24 00:43:52;;;;;;;19.80;7.65;;;14.20;99.90;;;;;;5039895;28;20378;-69
2022/05/24 00:46:22;;;;;;;17.40;7.93;;;14.20;99.90;;;;;;5039715;28;20033;-70
2022/05/24 00:49:04;;;;;;;14.90;8.10;;;14.20;99.90;;;;;;5039259;28;20473;-70
2022/05/24 00:51:47;;;;;;;14.02;7.47;;;14.30;99.90;;;;;;5039715;28;20462;-70
2022/05/24 00:54:14;;;;;;;15.30;8.73;;;14.20;99.90;;;;;;5039495;28;20393;-70
2022/05/24 00:57:02;;;;;;;13.90;8.93;;;14.20;99.90;;;;;;5039397;28;20061;-70
2022/05/24 01:00:00;;;;;;;11.25;8.13;;;14.20;99.90;;;;;;5035948;28;20018;-70
2022/05/24 01:02:26;;;;;;;17.23;8.48;;;14.20;99.90;;;;;;5035738;28;20069;-70
2022/05/24 01:04:51;;;;;;;17.15;8.80;;;14.20;99.90;;;;;;5036396;28;20060;-70
2022/05/24 01:07:17;;;;;;;14.85;8.48;;;14.20;99.90;;;;;;5035893;28;20079;-70
2022/05/24 01:09:52;;;;;;;22.75;9.80;;;14.20;99.90;;;;;;5036631;28;20025;-70
2022/05/24 01:12:40;;;;;;;12.18;7.60;;;14.20;99.90;;;;;;5036168;28;20104;-70
2022/05/24 01:15:08;;;;;;;13.77;9.57;;;14.20;99.90;;;;;;5035965;28;20068;-70
2022/05/24 01:17:35;;;;;;;14.60;10.43;;;14.20;99.90;;;;;;5035765;28;20367;-70
2022/05/24 01:20:02;;;;;;;18.33;10.82;;;14.20;99.90;;;;;;5036687;28;20340;-70
2022/05/24 01:23:02;;;;;;;18.52;10.02;;;14.30;99.90;;;;;;5035862;28;20112;-70
2022/05/24 01:25:33;;;;;;;21.60;11.40;;;14.20;99.90;;;;;;5035861;28;20472;-70
2022/05/24 01:28:00;;;;;;;13.65;10.18;;;14.20;99.90;;;;;;5035871;28;20071;-70
2022/05/24 01:30:26;;;;;;;25.08;10.80;;;14.30;99.90;;;;;;5035816;28;20026;-70
2022/05/24 01:38:21;;;;;;;;;;;14.20;99.90;;;;;;5036291;28;20440;-70
2022/05/24 01:40:49;;;;;;;18.10;12.40;;;14.20;99.90;;;;;;5035736;28;19905;-70
2022/05/24 01:43:16;;;;;;;16.92;12.13;;;14.20;99.90;;;;;;5035436;28;20030;-70
2022/05/24 01:45:56;;;;;;;19.38;12.20;;;14.30;99.90;;;;;;5035618;28;20079;-70
2022/05/24 01:48:28;;;;;;;18.35;13.23;;;14.30;99.90;;;;;;5035447;28;20024;-70
2022/05/24 01:50:55;;;;;;;20.60;13.75;;;14.30;99.90;;;;;;5035390;28;20028;-70
2022/05/24 01:53:26;;;;;;;22.88;13.43;;;14.20;99.90;;;;;;5035339;28;20026;-70
2022/05/24 01:55:55;;;;;;;19.60;12.73;;;14.20;99.90;;;;;;5035841;28;20445;-70
2022/05/24 01:58:23;;;;;;;15.35;12.80;;;14.30;99.90;;;;;;5035324;28;20030;-70
2022/05/24 02:00:56;;;;;;;19.83;14.10;;;14.30;99.90;;;;;;5035638;28;20493;-70
2022/05/24 02:03:22;;;;;;;27.63;14.60;;;14.30;99.90;;;;;;5035917;28;20025;-70
2022/05/24 02:05:47;;;;;;;19.98;14.93;;;14.30;99.90;;;;;;5035067;28;20028;-70
2022/05/24 02:08:14;;;;;;;25.15;15.23;;;14.30;99.90;;;;;;5034714;28;20030;-70
2022/05/24 02:10:52;;;;;;;24.70;15.07;;;14.40;99.90;;;;;;5034732;28;20022;-70
2022/05/24 02:13:27;;;;;;;24.20;16.02;;;14.30;99.90;;;;;;5034982;28;20386;-70
2022/05/24 02:15:55;;;;;;;20.45;14.52;;;14.30;99.90;;;;;;5035988;28;20429;-70
2022/05/24 02:18:23;;;;;;;23.92;12.85;;;14.30;99.90;;;;;;5034734;28;20389;-70
2022/05/24 02:20:49;;;;;;;31.05;14.25;;;14.20;99.90;;;;;;5034689;28;20029;-70
2022/05/24 02:23:17;;;;;;;29.95;14.80;;;14.00;99.90;;;;;;5034626;28;20520;-70
2022/05/24 02:25:55;;;;;;;30.70;15.55;;;13.80;99.90;;;;;;5034535;28;20056;-70
2022/05/24 02:28:27;;;;;;;31.30;16.88;;;13.70;99.90;;;;;;5016836;28;20029;-70
2022/05/24 02:31:00;;;;;;;26.25;13.52;;;13.60;99.90;;;;;;5016916;28;20120;-70
2022/05/24 02:33:26;;;;;;;27.13;13.90;;;13.60;99.90;;;;;;5034703;28;20466;-70
2022/05/24 02:35:52;;;;;;;28.20;15.27;;;13.50;99.90;;;;;;5034433;28;20105;-70
2022/05/24 02:38:18;;;;;;;26.55;14.73;;;13.50;99.90;;;;;;5034724;28;20432;-70
2022/05/24 02:43:27;;;;;;;;;;;13.40;99.90;;;;;;5035218;28;20490;-70
2022/05/24 02:45:53;;;;;;;37.28;20.15;;;13.40;99.90;;;;;;5034378;28;19905;-71
2022/05/24 02:48:18;;;;;;;50.30;22.30;;;13.40;99.90;;;;;;5034442;28;20053;-71
2022/05/24 02:50:44;;;;;;;48.75;23.65;;;13.30;99.90;;;;;;5034213;28;20061;-71
2022/05/24 02:53:10;;;;;;;53.85;24.42;;;13.30;99.90;;;;;;5034306;28;20034;-71
2022/05/24 02:55:35;;;;;;;51.53;27.52;;;13.30;99.90;;;;;;5034152;28;20022;-71
2022/05/24 02:58:01;;;;;;;65.95;29.67;;;13.20;99.90;;;;;;5034278;28;20021;-70
2022/05/24 03:00:27;;;;;;;74.43;30.52;;;13.20;99.90;;;;;;5034112;28;20030;-70
2022/05/24 03:02:53;;;;;;;64.65;30.58;;;13.20;99.90;;;;;;5034292;28;20028;-70
2022/05/24 03:05:19;;;;;;;63.08;31.98;;;13.20;99.90;;;;;;5034004;28;20029;-70
2022/05/24 03:10:31;;;;;;;61.88;28.80;;;13.20;99.90;;;;;;5033951;28;20087;-70
2022/05/24 03:15:42;;;;;;;52.13;26.42;;;13.20;99.90;;;;;;5034359;28;20032;-70
2022/05/24 03:18:11;;;;;;;57.15;25.65;;;13.10;99.90;;;;;;5033666;28;20080;-70
2022/05/24 03:20:40;;;;;;;47.03;26.95;;;13.10;99.90;;;;;;5034059;28;20030;-70
2022/05/24 03:23:06;;;;;;;50.63;25.13;;;13.10;99.90;;;;;;5033200;28;20052;-70
2022/05/24 03:25:32;;;;;;;56.80;26.55;;;13.10;99.90;;;;;;5034032;28;20030;-70
2022/05/24 03:27:59;;;;;;;49.25;27.15;;;13.00;99.90;;;;;;5033707;28;20035;-70
2022/05/24 03:30:26;;;;;;;51.22;26.88;;;13.00;99.90;;;;;;5033825;28;20436;-70
2022/05/24 03:32:52;;;;;;;52.85;26.90;;;13.00;99.90;;;;;;5033564;28;20026;-70
2022/05/24 03:35:18;;;;;;;46.53;24.77;;;13.00;99.90;;;;;;5033901;28;20037;-70
2022/05/24 03:37:43;;;;;;;51.03;27.65;;;12.90;99.90;;;;;;5033534;28;20090;-70
2022/05/24 03:40:10;;;;;;;60.65;26.75;;;13.00;99.90;;;;;;5015815;28;20368;-70
2022/05/24 03:42:36;;;;;;;62.85;26.58;;;12.90;99.90;;;;;;5033607;28;20045;-70
2022/05/24 03:45:04;;;;;;;60.90;29.30;;;12.90;99.90;;;;;;5033416;28;20488;-70
2022/05/24 03:47:30;;;;;;;58.35;25.50;;;12.90;99.90;;;;;;5033208;28;21648;-70
2022/05/24 03:49:55;;;;;;;46.80;22.73;;;12.90;99.90;;;;;;5033620;28;20105;-70
2022/05/24 03:52:21;;;;;;;42.28;22.48;;;12.80;99.90;;;;;;5033352;28;20037;-70
2022/05/24 03:54:46;;;;;;;54.38;22.42;;;12.80;99.90;;;;;;5033428;28;20026;-70
2022/05/24 03:59:56;;;;;;;;;;;12.80;99.90;;;;;;5033695;28;20070;-70
2022/05/24 04:02:21;;;;;;;43.85;18.55;;;12.80;99.90;;;;;;5033150;28;19999;-70
2022/05/24 04:04:47;;;;;;;46.55;16.65;;;12.80;99.90;;;;;;5033287;28;20033;-70
2022/05/24 04:07:13;;;;;;;39.08;16.60;;;12.80;99.90;;;;;;5033183;28;20144;-70
2022/05/24 04:09:38;;;;;;;40.88;17.77;;;12.80;99.90;;;;;;5033140;28;20478;-70
2022/05/24 04:12:05;;;;;;;45.65;15.73;;;12.80;99.90;;;;;;5033105;28;20097;-70
2022/05/24 04:14:32;;;;;;;29.88;14.45;;;12.80;99.90;;;;;;5033446;28;20482;-70
2022/05/24 04:16:58;;;;;;;29.67;12.65;;;12.80;99.90;;;;;;5033421;28;20032;-70
2022/05/24 04:19:24;;;;;;;31.75;11.63;;;12.80;99.90;;;;;;5033049;28;20096;-70
2022/05/24 04:21:51;;;;;;;23.88;9.60;;;12.80;99.90;;;;;;5033750;28;20026;-70
2022/05/24 04:24:17;;;;;;;31.23;10.13;;;12.80;99.90;;;;;;5034173;28;20038;-70
2022/05/24 04:26:42;;;;;;;32.45;9.10;;;12.80;99.90;;;;;;5033383;28;20021;-70
2022/05/24 04:29:08;;;;;;;21.63;7.63;;;12.80;99.90;;;;;;5032839;28;20033;-70
2022/05/24 04:31:33;;;;;;;23.70;7.25;;;12.80;99.90;;;;;;5033293;28;20028;-70
2022/05/24 04:33:59;;;;;;;27.45;7.75;;;12.70;99.90;;;;;;5034073;28;20095;-70
2022/05/24 04:36:25;;;;;;;27.13;7.85;;;12.80;99.90;;;;;;5036683;28;20029;-70
2022/05/24 04:38:51;;;;;;;20.27;8.32;;;12.70;99.90;;;;;;5036617;28;20065;-70
2022/05/24 04:44:00;;;;;;;26.98;10.20;;;12.70;99.90;;;;;;5036459;28;20563;-70
2022/05/24 04:47:06;;;;;;;27.17;10.43;;;12.70;99.90;;;;;;5036429;28;20025;-70
2022/05/24 04:49:12;;;;;;;29.17;10.32;;;12.70;99.90;;;;;;5036236;28;20022;-70
2022/05/24 04:51:38;;;;;;;33.97;10.20;;;12.80;99.90;;;;;;5036627;28;20021;-70
2022/05/24 04:54:03;;;;;;;30.98;10.00;;;12.70;99.90;;;;;;5036922;28;20148;-70
2022/05/24 04:56:29;;;;;;;26.10;9.13;;;12.70;99.90;;;;;;5036251;28;20057;-70
2022/05/24 04:58:54;;;;;;;19.45;7.60;;;12.70;99.90;;;;;;5018346;28;20051;-70
2022/05/24 05:01:20;;;;;;;23.15;7.07;;;12.60;99.90;;;;;;5036251;28;20027;-70
2022/05/24 05:03:45;;;;;;;16.63;6.65;;;12.60;99.90;;;;;;5036460;28;20116;-70
2022/05/24 05:06:11;;;;;;;17.23;6.63;;;12.50;99.90;;;;;;5036097;28;20025;-70
2022/05/24 05:08:36;;;;;;;17.38;6.60;;;12.60;99.90;;;;;;5035899;28;20029;-70
2022/05/24 05:11:02;;;;;;;14.70;6.93;;;12.50;99.90;;;;;;5036556;28;20451;-70
2022/05/24 05:13:27;;;;;;;11.38;5.65;;;12.50;99.90;;;;;;5036172;28;20056;-70
2022/05/24 05:15:54;;;;;;;20.65;7.18;;;12.60;99.90;;;;;;5036222;28;20045;-70
2022/05/24 05:18:20;;;;;;;13.05;7.00;;;12.50;99.90;;;;;;5036341;28;20112;-70
2022/05/24 05:20:46;;;;;;;13.73;6.90;;;12.50;99.90;;;;;;5035928;28;20075;-70
2022/05/24 05:23:14;;;;;;;17.50;8.38;;;12.60;99.90;;;;;;5035774;28;20033;-70
2022/05/24 05:25:41;;;;;;;19.02;7.88;;;12.60;99.90;;;;;;5035818;28;20076;-70
2022/05/24 05:28:07;;;;;;;16.77;8.35;;;12.60;99.90;;;;;;5035619;28;20022;-71
2022/05/24 05:33:18;;;;;;;17.50;8.18;;;12.60;99.90;;;;;;5036270;28;20493;-71
2022/05/24 05:35:45;;;;;;;19.45;9.13;;;12.60;99.90;;;;;;5035614;28;20033;-70
2022/05/24 05:38:11;;;;;;;21.60;9.35;;;12.60;99.90;;;;;;5035532;28;20032;-70
2022/05/24 05:40:37;;;;;;;22.45;9.55;;;12.60;99.90;;;;;;5035837;28;20022;-70
2022/05/24 05:43:03;;;;;;;20.55;9.32;;;12.60;99.90;;;;;;5035402;28;20068;-71
2022/05/24 05:45:29;;;;;;;22.10;8.85;;;12.70;99.90;;;;;;5034925;28;20061;-71
2022/05/24 05:47:55;;;;;;;22.98;9.15;;;12.70;99.90;;;;;;5035454;28;20021;-71
2022/05/24 05:50:20;;;;;;;25.25;7.90;;;12.70;99.90;;;;;;5035370;28;20485;-71
2022/05/24 05:52:47;;;;;;;18.40;9.20;;;12.80;99.90;;;;;;5035607;28;20033;-71
2022/05/24 05:55:12;;;;;;;19.73;9.68;;;12.80;99.90;;;;;;5035253;28;20025;-70
2022/05/24 05:57:39;;;;;;;20.65;8.80;;;12.80;99.90;;;;;;5035327;28;20036;-70
2022/05/24 06:00:08;;;;;;;25.05;9.65;;;12.80;99.90;;;;;;5035138;28;20029;-70
2022/05/24 06:02:34;;;;;;;19.80;9.48;;;12.90;99.90;;;;;;5034976;28;20029;-70
2022/05/24 06:04:59;;;;;;;17.65;7.45;;;13.00;99.90;;;;;;5035044;28;20383;-70
2022/05/24 06:07:25;;;;;;;18.27;8.20;;;13.10;99.90;;;;;;5034799;28;20033;-70
2022/05/24 06:09:50;;;;;;;19.67;7.50;;;13.30;99.90;;;;;;5036095;28;20026;-70
2022/05/24 06:12:17;;;;;;;26.48;7.13;;;13.30;99.90;;;;;;5035097;28;20013;-71
2022/05/24 06:14:42;;;;;;;16.80;6.53;;;13.30;99.90;;;;;;5034822;28;20052;-71
2022/05/24 06:17:08;;;;;;;20.85;7.95;;;13.40;99.90;;;;;;5034799;28;20060;-71
2022/05/24 06:19:33;;;;;;;14.57;7.15;;;13.40;99.90;;;;;;5034886;28;20021;-71
2022/05/24 06:21:59;;;;;;;17.92;7.70;;;13.50;99.90;;;;;;5034683;28;20489;-71
2022/05/24 06:24:25;;;;;;;12.35;7.18;;;13.60;99.90;;;;;;5034607;28;20033;-71
2022/05/24 06:26:50;;;;;;;18.20;9.65;;;13.60;99.90;;;;;;5034639;28;20040;-71
2022/05/24 06:29:17;;;;;;;21.42;8.95;;;13.70;99.90;;;;;;5034615;28;20028;-71
2022/05/24 06:31:44;;;;;;;22.63;9.38;;;13.70;99.90;;;;;;5034714;28;20026;-71
2022/05/24 06:34:11;;;;;;;16.42;8.40;;;13.80;99.90;;;;;;5034659;28;20029;-71
2022/05/24 06:36:36;;;;;;;20.73;8.77;;;13.90;99.90;;;;;;5034474;28;20398;-71
2022/05/24 06:39:03;;;;;;;20.58;8.48;;;14.00;99.90;;;;;;5034319;28;20033;-71
2022/05/24 06:41:28;;;;;;;19.42;8.45;;;14.00;99.90;;;;;;5034436;28;20029;-71
2022/05/24 06:43:54;;;;;;;26.58;10.13;;;13.90;99.90;;;;;;5034562;28;20036;-71
2022/05/24 06:46:19;;;;;;;18.65;8.70;;;13.80;99.90;;;;;;5035311;28;20025;-71
2022/05/24 06:48:45;;;;;;;25.42;9.73;;;13.80;99.90;;;;;;5035236;28;20014;-71
2022/05/24 06:51:16;;;;;;;23.65;10.45;;;13.80;99.90;;;;;;5034126;28;20030;-71
2022/05/24 06:53:44;;;;;;;31.15;11.95;;;13.90;99.90;;;;;;5034174;28;20496;-71
2022/05/24 06:56:10;;;;;;;21.67;9.82;;;13.90;99.90;;;;;;5033472;28;20026;-71
2022/05/24 06:58:36;;;;;;;15.70;9.48;;;13.90;99.90;;;;;;5033857;28;20021;-71
2022/05/24 07:03:48;;;;;;;22.52;8.80;;;14.10;99.90;;;;;;5033963;28;20076;-71
2022/05/24 07:06:15;;;;;;;20.60;9.32;;;14.00;99.90;;;;;;5034163;28;20029;-71
2022/05/24 07:08:45;;;;;;;17.17;9.73;;;14.00;99.90;;;;;;5033595;28;20056;-71
2022/05/24 07:11:11;;;;;;;25.65;9.73;;;14.00;99.90;;;;;;5034090;28;20057;-71
2022/05/24 07:13:38;;;;;;;23.05;9.15;;;13.90;99.90;;;;;;5033864;28;20409;-71
2022/05/24 07:16:04;;;;;;;25.92;9.45;;;13.90;99.90;;;;;;5034006;28;20021;-71
2022/05/24 07:18:29;;;;;;;18.83;9.32;;;13.70;99.90;;;;;;5033706;28;20025;-71
2022/05/24 07:20:55;;;;;;;21.48;10.52;;;13.70;99.90;;;;;;5033667;28;20474;-71
2022/05/24 07:23:24;;;;;;;23.75;11.20;;;13.70;99.90;;;;;;5033566;28;20021;-71
2022/05/24 07:25:51;;;;;;;29.73;11.38;;;13.60;99.90;;;;;;5033900;28;20056;-71
2022/05/24 07:28:17;;;;;;;22.17;11.02;;;13.60;99.90;;;;;;5033412;28;20029;-71
2022/05/24 07:30:42;;;;;;;38.35;13.07;;;13.60;99.90;;;;;;5033533;28;20021;-71
2022/05/24 07:33:08;;;;;;;23.02;11.55;;;13.60;99.90;;;;;;5033449;28;20163;-71
2022/05/24 07:35:34;;;;;;;31.98;11.20;;;13.50;99.90;;;;;;5033787;28;20060;-71
2022/05/24 07:38:00;;;;;;;26.38;11.68;;;13.40;99.90;;;;;;5033319;28;20081;-71
2022/05/24 07:45:58;;;;;;;26.40;12.57;;;13.60;99.90;;;;;;5033405;28;20029;-71
2022/05/24 07:48:24;;;;;;;25.73;12.27;;;13.70;99.90;;;;;;5033082;28;20040;-71
2022/05/24 07:50:51;;;;;;;28.85;10.93;;;13.70;99.90;;;;;;5033427;28;20025;-70
2022/05/24 07:53:17;;;;;;;31.23;11.15;;;13.70;99.90;;;;;;5033594;28;20021;-70
2022/05/24 07:55:44;;;;;;;17.20;9.90;;;13.70;99.90;;;;;;5033312;28;20061;-70
2022/05/24 07:58:10;;;;;;;21.63;10.60;;;13.60;99.90;;;;;;5033147;28;20021;-70
2022/05/24 08:00:36;;;;;;;27.05;11.07;;;13.70;99.90;;;;;;5033234;28;20034;-70
2022/05/24 08:03:04;;;;;;;16.55;10.75;;;13.80;99.90;;;;;;5033191;28;20391;-70
2022/05/24 08:05:31;;;;;;;19.88;11.35;;;13.90;99.90;;;;;;5033197;28;20100;-70
2022/05/24 08:07:57;;;;;;;20.52;9.80;;;14.00;99.90;;;;;;5033939;28;20031;-70
2022/05/24 08:10:23;;;;;;;18.40;9.75;;;14.10;99.90;;;;;;5037428;28;20105;-70
2022/05/24 08:12:49;;;;;;;18.65;9.80;;;14.10;99.90;;;;;;5037123;28;20061;-70
2022/05/24 08:15:14;;;;;;;19.33;9.68;;;14.30;99.90;;;;;;5037370;28;20037;-70
2022/05/24 08:17:40;;;;;;;23.95;9.82;;;14.30;99.90;;;;;;5036952;28;20065;-70
2022/05/24 08:20:09;;;;;;;24.40;10.40;;;14.50;99.90;;;;;;5037064;28;20037;-72
2022/05/24 08:22:39;;;;;;;22.58;9.73;;;14.50;99.90;;;;;;5037020;28;20022;-71
2022/05/24 08:25:07;;;;;;;21.23;10.65;;;14.60;99.90;;;;;;5037064;28;20026;-71
2022/05/24 08:27:32;;;;;;;16.92;9.90;;;14.60;99.90;;;;;;5037091;28;20025;-71
2022/05/24 08:29:59;;;;;;;22.92;11.85;;;14.70;99.90;;;;;;5036809;28;20022;-71
2022/05/24 08:32:25;;;;;;;22.00;11.00;;;14.60;99.90;;;;;;5036796;28;20014;-70
2022/05/24 08:34:51;;;;;;;22.55;10.63;;;14.70;99.90;;;;;;5036972;28;20036;-70
2022/05/24 08:37:16;;;;;;;20.83;12.60;;;14.80;99.90;;;;;;5036663;28;20026;-71
2022/05/24 08:39:42;;;;;;;26.38;12.60;;;14.80;99.90;;;;;;5036666;28;20109;-70
2022/05/24 08:42:38;;;;;;;25.92;12.18;;;14.80;99.90;;;;;;5036604;28;20025;-70
2022/05/24 08:48:25;;;;;;;22.00;10.70;;;14.80;99.90;;;;;;5036650;28;20449;-71
2022/05/24 08:51:11;;;;;;;18.70;10.32;;;14.90;99.90;;;;;;5036790;28;20048;-71
2022/05/24 08:53:47;;;;;;;29.55;10.68;;;14.90;99.90;;;;;;5037215;28;20433;-71
2022/05/24 08:56:21;;;;;;;27.45;9.93;;;14.90;99.90;;;;;;5036672;28;20100;-71
2022/05/24 08:58:52;;;;;;;17.75;10.18;;;15.20;99.90;;;;;;5036389;28;20029;-70
2022/05/24 09:01:25;;;;;;;25.02;10.63;;;15.20;99.90;;;;;;5036363;28;20032;-71
2022/05/24 09:03:51;;;;;;;25.02;9.90;;;15.20;99.90;;;;;;5036515;28;20025;-70
2022/05/24 09:06:54;;;;;;;27.05;14.02;;;15.20;99.90;;;;;;5036971;28;20512;-70
2022/05/24 09:09:44;;;;;;;22.70;11.55;;;15.40;99.90;;;;;;5036387;28;20033;-70
2022/05/24 09:12:47;;;;;;;20.80;10.32;;;15.40;99.90;;;;;;5036180;28;20024;-70
2022/05/24 09:15:47;;;;;;;20.80;9.60;;;15.20;99.90;;;;;;5036317;28;20489;-70
2022/05/24 09:18:45;;;;;;;20.23;8.55;;;15.00;99.90;;;;;;5035986;28;20029;-70
2022/05/24 09:21:20;;;;;;;17.40;8.88;;;14.90;99.90;;;;;;5034804;28;20431;-70
2022/05/24 09:23:51;;;;;;;21.67;8.70;;;14.90;99.90;;;;;;5036170;28;20030;-70
2022/05/24 09:26:22;;;;;;;15.40;8.80;;;15.00;99.90;;;;;;5035701;28;20385;-70
2022/05/24 09:28:55;;;;;;;13.38;7.28;;;15.10;99.90;;;;;;5035865;28;20013;-70
2022/05/24 09:31:42;;;;;;;18.42;6.60;;;15.20;99.90;;;;;;5036045;28;20018;-70
2022/05/24 09:34:17;;;;;;;16.60;7.00;;;15.40;99.90;;;;;;5036003;28;20032;-70
2022/05/24 09:36:57;;;;;;;15.32;6.40;;;15.50;99.90;;;;;;5036339;28;20032;-70
2022/05/24 09:39:38;;;;;;;14.35;6.65;;;15.60;99.90;;;;;;5035563;28;20029;-70
2022/05/24 09:42:11;;;;;;;14.60;6.53;;;15.60;99.90;;;;;;5035833;28;20029;-70
2022/05/24 09:45:21;;;;;;;16.70;7.22;;;15.80;99.90;;;;;;5035444;28;20394;-70
2022/05/24 09:47:58;;;;;;;15.18;6.13;;;15.80;99.90;;;;;;4974662;28;20031;-70
2022/05/24 09:50:26;;;;;;;12.88;5.13;;;15.90;99.90;;;;;;5032414;28;20029;-70
2022/05/24 09:53:08;;;;;;;12.75;5.18;;;15.90;99.90;;;;;;5035470;28;20033;-70
2022/05/24 09:55:38;;;;;;;12.63;4.63;;;15.90;99.90;;;;;;5035770;28;20017;-70
2022/05/24 09:58:36;;;;;;;13.40;4.53;;;15.80;99.90;;;;;;5035265;28;20037;-70
2022/05/24 10:01:06;;;;;;;7.82;4.35;;;15.90;99.90;;;;;;5035281;28;20028;-71
2022/05/24 10:03:33;;;;;;;10.65;4.35;;;15.70;99.90;;;;;;5035270;28;20028;-70
2022/05/24 10:06:23;;;;;;;15.88;5.07;;;15.60;99.90;;;;;;5035395;28;20067;-70
2022/05/24 10:09:00;;;;;;;11.38;5.32;;;15.50;99.90;;;;;;5034797;28;20025;-70
2022/05/24 10:11:28;;;;;;;11.45;4.80;;;15.40;99.90;;;;;;5035272;28;20025;-70
2022/05/24 10:14:07;;;;;;;16.88;4.28;;;15.30;99.90;;;;;;5035358;28;20489;-70
2022/05/24 10:16:37;;;;;;;13.25;3.95;;;15.30;99.90;;;;;;5034804;28;20112;-70
2022/05/24 10:19:33;;;;;;;15.20;4.65;;;15.30;99.90;;;;;;5034734;28;20025;-70
2022/05/24 10:22:23;;;;;;;16.42;4.78;;;15.50;99.90;;;;;;5035065;28;20100;-70
2022/05/24 10:25:32;;;;;;;12.70;4.05;;;15.80;99.90;;;;;;5027173;28;20237;-70
2022/05/24 10:28:38;;;;;;;9.68;4.47;;;16.30;99.90;;;;;;4973715;28;20033;-70
2022/05/24 10:31:25;;;;;;;12.73;4.00;;;16.60;99.90;;;;;;4973686;28;20479;-70
2022/05/24 10:40:22;;;;;;;10.57;4.70;;;17.00;99.90;;;;;;5034523;28;20049;-70
2022/05/24 10:43:24;;;;;;;16.73;5.05;;;16.50;99.90;;;;;;5034571;28;20017;-70
2022/05/24 10:46:04;;;;;;;12.05;5.22;;;16.10;99.90;;;;;;5034217;28;20032;-70
2022/05/24 10:48:59;;;;;;;10.90;4.63;;;16.00;99.90;;;;;;5034402;28;20036;-70
2022/05/24 10:51:37;;;;;;;13.35;5.80;;;16.10;99.90;;;;;;5034785;28;20025;-70
2022/05/24 10:54:23;;;;;;;11.80;5.45;;;16.10;99.90;;;;;;5034279;28;20025;-70
2022/05/24 10:56:55;;;;;;;12.20;4.97;;;16.00;99.90;;;;;;5034677;28;20091;-70
2022/05/24 10:59:36;;;;;;;8.18;4.60;;;16.20;99.90;;;;;;5034089;28;20028;-70
2022/05/24 11:02:15;;;;;;;12.52;5.90;;;16.40;99.90;;;;;;5034074;28;20428;-70
2022/05/24 11:05:07;;;;;;;10.57;5.95;;;16.50;99.90;;;;;;5034021;28;20474;-70
2022/05/24 11:07:34;;;;;;;11.02;6.03;;;16.80;99.90;;;;;;5033976;28;20371;-70
2022/05/24 11:10:06;;;;;;;11.25;4.38;;;17.00;99.90;;;;;;5034016;28;20021;-70
2022/05/24 11:12:40;;;;;;;15.45;5.22;;;16.90;99.90;;;;;;5033888;28;20029;-70
2022/05/24 11:15:14;;;;;;;10.40;4.20;;;16.80;99.90;;;;;;5033855;28;20082;-70
2022/05/24 11:17:39;;;;;;;9.90;3.72;;;16.60;99.90;;;;;;5033808;28;20041;-70
2022/05/24 11:20:06;;;;;;;21.08;6.13;;;16.80;99.90;;;;;;5033776;28;20059;-70
2022/05/24 11:22:36;;;;;;;17.02;5.18;;;16.60;99.90;;;;;;5034208;28;20021;-70
2022/05/24 11:25:20;;;;;;;7.57;3.95;;;16.60;99.90;;;;;;5033949;28;20080;-71
2022/05/24 11:28:07;;;;;;;11.68;3.05;;;16.30;99.90;;;;;;5034104;28;20418;-72
2022/05/24 11:30:39;;;;;;;9.88;3.83;;;16.30;99.90;;;;;;5034591;28;20103;-73
2022/05/24 11:33:09;;;;;;;11.60;4.25;;;16.20;99.90;;;;;;5033808;28;20036;-72
2022/05/24 11:35:44;;;;;;;12.35;3.92;;;16.00;99.90;;;;;;5033834;28;20462;-72
2022/05/24 11:38:17;;;;;;;13.02;3.90;;;16.00;99.90;;;;;;5034030;28;20029;-72
2022/05/24 11:40:55;;;;;;;15.00;4.78;;;16.00;99.90;;;;;;5033530;28;20021;-72
2022/05/24 11:43:35;;;;;;;12.77;3.30;;;16.20;99.90;;;;;;5032875;28;20032;-72
2022/05/24 11:46:08;;;;;;;11.05;4.13;;;16.30;99.90;;;;;;5033671;28;20075;-72
2022/05/24 11:48:46;;;;;;;9.57;3.70;;;16.20;99.90;;;;;;5033402;28;20020;-70
2022/05/24 11:51:45;;;;;;;12.52;3.83;;;16.40;99.90;;;;;;5033409;28;20369;-70
2022/05/24 11:54:21;;;;;;;14.20;4.13;;;16.50;99.90;;;;;;5033338;28;20482;-70
2022/05/24 11:57:00;;;;;;;8.90;3.35;;;16.70;99.90;;;;;;5033271;28;20025;-70
2022/05/24 11:59:43;;;;;;;10.13;3.80;;;16.70;99.90;;;;;;5033310;28;20029;-70
2022/05/24 12:02:25;;;;;;;11.70;3.75;;;16.60;99.90;;;;;;5033244;28;20083;-70
2022/05/24 12:07:54;;;;;;;9.98;4.35;;;16.00;99.90;;;;;;5033197;28;20084;-70
2022/05/24 12:10:26;;;;;;;5.65;3.30;;;15.90;99.90;;;;;;5033791;28;20459;-70
2022/05/24 12:13:03;;;;;;;15.00;3.85;;;16.00;99.90;;;;;;5033097;28;20105;-70
2022/05/24 12:15:33;;;;;;;9.00;3.72;;;16.10;99.90;;;;;;5033121;28;20030;-70
2022/05/24 12:17:58;;;;;;;18.70;3.90;;;16.30;99.90;;;;;;5033115;28;20018;-70
2022/05/24 12:20:33;;;;;;;18.40;4.03;;;16.20;99.90;;;;;;5015324;28;20057;-70
2022/05/24 12:23:04;;;;;;;10.80;4.07;;;16.00;99.90;;;;;;5032994;28;20036;-70
2022/05/24 12:26:10;;;;;;;9.50;4.07;;;16.00;99.90;;;;;;5033287;28;20032;-70
2022/05/24 12:28:38;;;;;;;11.75;3.45;;;16.00;99.90;;;;;;5032760;28;20021;-70
2022/05/24 12:31:13;;;;;;;11.23;3.88;;;16.00;99.90;;;;;;5033180;28;20056;-70
2022/05/24 12:33:55;;;;;;;9.63;4.00;;;16.10;99.90;;;;;;5033446;28;20048;-70
2022/05/24 12:36:46;;;;;;;5.95;3.45;;;16.10;99.90;;;;;;5032914;28;20029;-70
2022/05/24 12:39:17;;;;;;;11.88;4.25;;;16.10;99.90;;;;;;5033113;28;20053;-70
2022/05/24 12:41:52;;;;;;;13.32;4.25;;;16.10;99.90;;;;;;5033106;28;20033;-70
2022/05/24 12:44:24;;;;;;;9.35;5.05;;;15.80;99.90;;;;;;5032792;28;20037;-70
2022/05/24 12:46:56;;;;;;;14.90;5.80;;;15.70;99.90;;;;;;5032842;28;20025;-70
2022/05/24 12:49:27;;;;;;;10.15;6.72;;;15.60;99.90;;;;;;5032752;28;20053;-70
2022/05/24 12:52:10;;;;;;;14.73;6.55;;;15.30;99.90;;;;;;5033040;28;20031;-70
2022/05/24 12:54:41;;;;;;;10.90;7.20;;;15.10;99.90;;;;;;5033379;28;20029;-70
2022/05/24 12:57:15;;;;;;;16.13;8.38;;;15.00;99.90;;;;;;5036402;28;20079;-70
2022/05/24 12:59:49;;;;;;;19.42;8.90;;;14.80;99.90;;;;;;5036513;28;20052;-70
2022/05/24 13:02:41;;;;;;;25.13;9.30;;;14.70;99.90;;;;;;5036620;28;20075;-70
2022/05/24 13:05:06;;;;;;;17.45;6.25;;;14.70;99.90;;;;;;5036527;28;20037;-70
2022/05/24 13:07:43;;;;;;;15.93;4.47;;;14.60;99.90;;;;;;5035883;28;20214;-70
2022/05/24 13:10:26;;;;;;;15.57;2.83;;;14.40;99.90;;;;;;5036411;28;20492;-70
2022/05/24 13:12:54;;;;;;;8.43;3.83;;;14.20;99.90;;;;;;5036370;28;20072;-70
2022/05/24 13:15:28;;;;;;;11.85;4.63;;;14.00;99.90;;;;;;5036360;28;20467;-70
2022/05/24 13:17:58;;;;;;;10.02;5.43;;;14.10;99.90;;;;;;5036033;28;20101;-70
2022/05/24 13:20:30;;;;;;;9.75;5.45;;;14.20;99.90;;;;;;5035885;28;20474;-70
2022/05/24 13:23:01;;;;;;;13.60;5.25;;;14.50;99.90;;;;;;5036081;28;20032;-70
2022/05/24 13:25:57;;;;;;;19.55;5.65;;;14.40;99.90;;;;;;5035871;28;20099;-70
2022/05/24 13:28:48;;;;;;;24.83;6.47;;;14.30;99.90;;;;;;5035690;28;20045;-70
2022/05/24 13:34:15;;;;;;;19.20;4.45;;;14.70;99.90;;;;;;5036287;28;20527;-70
2022/05/24 13:36:49;;;;;;;16.83;3.85;;;15.20;99.90;;;;;;5036059;28;20026;-70
2022/05/24 13:39:26;;;;;;;8.75;1.90;;;15.60;99.90;;;;;;5035608;28;20026;-70
2022/05/24 13:42:00;;;;;;;6.63;1.98;;;15.50;99.90;;;;;;5035779;28;20355;-70
2022/05/24 13:44:30;;;;;;;8.80;1.92;;;16.30;99.90;;;;;;5035540;28;20025;-69